Time;durP1;ratioP1;P1;durP2;ratioP2;P2;SDS_P1;SDS_P2;PMS_P1;PMS_P2;Temp;Humidity;BMP_temperature;BMP_pressure;BME280_temperature;BME280_humidity;BME280_pressure;Samples;Min_cycle;Max_cycle;Signal;HPM_P1;HPM_P2
2021/04/18 00:00:22;;;;;;;9.15;3.22;;;4.70;99.90;;;;;;5050479;28;20711;-55
2021/04/18 00:02:50;;;;;;;8.32;4.18;;;4.70;99.90;;;;;;5050617;28;20033;-58
2021/04/18 00:05:17;;;;;;;14.75;4.82;;;4.60;99.90;;;;;;5048703;28;20032;-58
2021/04/18 00:07:43;;;;;;;7.38;3.30;;;4.60;99.90;;;;;;5054286;28;20025;-57
2021/04/18 00:10:10;;;;;;;10.85;3.17;;;4.40;99.90;;;;;;5054292;28;20110;-58
2021/04/18 00:12:36;;;;;;;7.00;3.55;;;4.40;99.90;;;;;;5053917;28;20355;-57
2021/04/18 00:15:06;;;;;;;9.32;3.47;;;4.30;99.90;;;;;;5054686;28;20037;-57
2021/04/18 00:17:32;;;;;;;9.40;2.90;;;4.30;99.90;;;;;;5054124;28;20471;-56
2021/04/18 00:19:57;;;;;;;15.68;3.00;;;4.20;99.90;;;;;;5054112;28;20036;-57
2021/04/18 00:22:23;;;;;;;8.27;3.03;;;4.20;99.90;;;;;;5053297;28;20025;-57
2021/04/18 00:24:49;;;;;;;4.38;2.70;;;4.10;99.90;;;;;;5053621;28;20575;-57
2021/04/18 00:27:14;;;;;;;6.80;2.55;;;4.00;99.90;;;;;;5053682;28;20084;-57
2021/04/18 00:29:40;;;;;;;11.13;2.85;;;4.00;99.90;;;;;;5054519;28;20025;-57
2021/04/18 00:32:06;;;;;;;9.70;2.92;;;4.00;99.90;;;;;;5052543;28;20079;-57
2021/04/18 00:34:32;;;;;;;8.15;2.80;;;3.90;99.90;;;;;;5054096;28;20037;-58
2021/04/18 00:36:57;;;;;;;7.00;2.75;;;3.90;99.90;;;;;;5054029;28;20036;-60
2021/04/18 00:39:23;;;;;;;7.15;3.00;;;3.80;99.90;;;;;;5052347;28;20025;-58
2021/04/18 00:41:49;;;;;;;7.70;3.30;;;3.70;99.90;;;;;;5053906;28;20044;-60
2021/04/18 00:44:14;;;;;;;8.23;3.45;;;3.80;99.90;;;;;;5053744;28;20037;-58
2021/04/18 00:46:40;;;;;;;13.18;3.60;;;3.70;99.90;;;;;;5054118;28;20561;-58
2021/04/18 00:49:07;;;;;;;6.00;3.30;;;3.70;99.90;;;;;;5053841;28;20029;-59
2021/04/18 00:51:33;;;;;;;8.18;3.20;;;3.70;99.90;;;;;;5053709;28;20044;-59
2021/04/18 00:53:59;;;;;;;5.13;2.83;;;3.60;99.90;;;;;;5053662;28;20036;-58
2021/04/18 00:56:25;;;;;;;8.15;2.53;;;3.50;99.90;;;;;;5053068;28;20025;-57
2021/04/18 00:58:50;;;;;;;5.80;2.72;;;3.50;99.90;;;;;;5053628;28;20425;-58
2021/04/18 01:01:16;;;;;;;8.38;2.95;;;3.50;99.90;;;;;;5053682;28;20044;-54
2021/04/18 01:03:42;;;;;;;11.60;4.13;;;3.40;99.90;;;;;;5053205;28;20037;-59
2021/04/18 01:06:08;;;;;;;8.07;3.22;;;3.40;99.90;;;;;;5053282;28;20079;-57
2021/04/18 01:08:33;;;;;;;6.47;3.20;;;3.40;99.90;;;;;;5053284;28;20475;-56
2021/04/18 01:11:00;;;;;;;9.73;3.40;;;3.40;99.90;;;;;;5053611;28;20068;-61
2021/04/18 01:13:26;;;;;;;8.75;4.10;;;3.50;99.90;;;;;;5052071;28;20135;-59
2021/04/18 01:15:52;;;;;;;6.63;3.83;;;3.40;99.90;;;;;;5052792;28;20095;-55
2021/04/18 01:18:18;;;;;;;7.15;3.97;;;3.40;99.90;;;;;;5053267;28;20056;-57
2021/04/18 01:20:44;;;;;;;7.60;4.28;;;3.40;99.90;;;;;;5053159;28;20043;-59
2021/04/18 01:23:10;;;;;;;12.20;4.85;;;3.30;99.90;;;;;;5051703;28;20025;-59
2021/04/18 01:25:41;;;;;;;6.15;4.00;;;3.30;99.90;;;;;;5052352;28;20071;-59
2021/04/18 01:28:08;;;;;;;10.32;4.38;;;3.20;99.90;;;;;;5048093;28;20029;-58
2021/04/18 01:30:33;;;;;;;6.38;3.90;;;3.20;99.90;;;;;;5051867;28;20036;-55
2021/04/18 01:33:03;;;;;;;6.47;3.05;;;3.20;99.90;;;;;;5052987;28;20041;-58
2021/04/18 01:35:29;;;;;;;8.15;3.58;;;3.10;99.90;;;;;;5052801;28;20040;-57
2021/04/18 01:37:54;;;;;;;6.10;3.72;;;3.00;99.90;;;;;;5049613;28;20090;-60
2021/04/18 01:40:22;;;;;;;7.63;3.35;;;3.00;99.90;;;;;;5038412;28;20431;-55
2021/04/18 01:42:49;;;;;;;11.95;3.75;;;2.90;99.90;;;;;;5052677;28;20029;-57
2021/04/18 01:45:17;;;;;;;6.43;3.13;;;2.80;99.90;;;;;;5052674;28;20505;-58
2021/04/18 01:47:43;;;;;;;6.03;2.90;;;2.90;99.90;;;;;;5052927;28;20017;-59
2021/04/18 01:50:12;;;;;;;8.27;2.85;;;2.80;99.90;;;;;;5052627;28;20033;-57
2021/04/18 01:52:38;;;;;;;7.07;3.08;;;2.80;99.90;;;;;;5053006;28;20040;-54
2021/04/18 01:55:06;;;;;;;5.70;2.70;;;2.70;99.90;;;;;;5052431;28;20032;-55
2021/04/18 01:57:32;;;;;;;9.75;3.03;;;2.70;99.90;;;;;;5052596;28;20071;-58
2021/04/18 01:59:58;;;;;;;7.75;3.00;;;2.60;99.90;;;;;;5051542;28;20041;-59
2021/04/18 02:02:24;;;;;;;8.02;2.72;;;2.60;99.90;;;;;;5048995;28;20063;-59
2021/04/18 02:04:52;;;;;;;5.25;2.83;;;2.60;99.90;;;;;;5052546;28;20033;-56
2021/04/18 02:07:18;;;;;;;5.53;2.63;;;2.60;99.90;;;;;;5052104;28;20526;-57
2021/04/18 02:09:44;;;;;;;7.57;2.58;;;2.60;99.90;;;;;;5052771;28;20060;-53
2021/04/18 02:12:10;;;;;;;5.80;2.95;;;2.60;99.90;;;;;;5051366;28;20047;-58
2021/04/18 02:14:36;;;;;;;7.35;2.97;;;2.50;99.90;;;;;;5052023;28;20056;-59
2021/04/18 02:17:03;;;;;;;4.57;2.85;;;2.50;99.90;;;;;;5052038;28;20037;-60
2021/04/18 02:19:29;;;;;;;6.78;2.40;;;2.50;99.90;;;;;;5052103;28;20486;-56
2021/04/18 02:21:56;;;;;;;5.75;2.63;;;2.50;99.90;;;;;;5052400;28;20124;-57
2021/04/18 02:24:22;;;;;;;8.15;2.97;;;2.60;99.90;;;;;;5051340;28;20045;-57
2021/04/18 02:26:47;;;;;;;8.43;2.70;;;2.50;99.90;;;;;;5051412;28;20360;-61
2021/04/18 02:29:13;;;;;;;5.53;2.70;;;2.60;99.90;;;;;;5051481;28;20029;-58
2021/04/18 02:31:39;;;;;;;7.40;2.33;;;2.60;99.90;;;;;;5050979;28;20025;-57
2021/04/18 02:34:05;;;;;;;8.63;2.95;;;2.60;99.90;;;;;;5051205;28;20033;-60
2021/04/18 02:36:30;;;;;;;5.95;2.55;;;2.60;99.90;;;;;;5052099;28;20488;-60
2021/04/18 02:38:56;;;;;;;6.53;2.78;;;2.50;99.90;;;;;;5051650;28;20033;-59
2021/04/18 02:41:22;;;;;;;8.80;2.85;;;2.50;99.90;;;;;;5050243;28;20096;-58
2021/04/18 02:43:48;;;;;;;8.90;3.10;;;2.50;99.90;;;;;;5051326;28;20036;-60
2021/04/18 02:46:14;;;;;;;5.68;2.88;;;2.50;99.90;;;;;;5050402;28;20701;-56
2021/04/18 02:48:40;;;;;;;9.02;2.85;;;2.50;99.90;;;;;;5051635;28;20029;-58
2021/04/18 02:51:06;;;;;;;7.47;2.70;;;2.50;99.90;;;;;;5051839;28;20467;-58
2021/04/18 02:53:31;;;;;;;4.80;2.80;;;2.50;99.90;;;;;;5051248;28;20025;-60
2021/04/18 02:55:57;;;;;;;7.95;2.85;;;2.50;99.90;;;;;;5051124;28;20425;-60
2021/04/18 02:58:23;;;;;;;7.20;2.92;;;2.50;99.90;;;;;;5050815;28;20555;-56
2021/04/18 03:00:48;;;;;;;6.93;3.63;;;2.50;99.90;;;;;;5051160;28;20498;-59
2021/04/18 03:03:14;;;;;;;7.22;3.20;;;2.50;99.90;;;;;;5051269;28;20520;-60
2021/04/18 03:05:40;;;;;;;6.25;2.97;;;2.50;99.90;;;;;;5051047;28;20552;-60
2021/04/18 03:08:06;;;;;;;4.95;2.80;;;2.40;99.90;;;;;;5049144;28;20025;-58
2021/04/18 03:10:32;;;;;;;7.05;3.03;;;2.30;99.90;;;;;;5051394;28;20024;-59
2021/04/18 03:12:57;;;;;;;7.32;2.78;;;2.30;99.90;;;;;;5051104;28;20098;-59
2021/04/18 03:15:24;;;;;;;4.88;2.70;;;2.30;99.90;;;;;;5051039;28;20028;-55
2021/04/18 03:17:50;;;;;;;11.23;3.22;;;2.30;99.90;;;;;;5050896;28;20056;-58
2021/04/18 03:20:16;;;;;;;4.78;2.67;;;2.30;99.90;;;;;;5051254;28;20411;-56
2021/04/18 03:22:42;;;;;;;4.40;2.53;;;2.30;99.90;;;;;;5050776;28;20029;-57
2021/04/18 03:25:09;;;;;;;7.38;2.55;;;2.20;99.90;;;;;;5050845;28;20048;-57
2021/04/18 03:27:35;;;;;;;5.97;2.47;;;2.30;99.90;;;;;;5049985;28;20469;-56
2021/04/18 03:30:01;;;;;;;5.00;2.20;;;2.30;99.90;;;;;;5051002;28;20132;-56
2021/04/18 03:32:27;;;;;;;4.80;2.40;;;2.30;99.90;;;;;;5050926;28;20463;-57
2021/04/18 03:34:52;;;;;;;4.13;2.40;;;2.30;99.90;;;;;;5051224;28;20033;-57
2021/04/18 03:37:18;;;;;;;5.10;2.10;;;2.30;99.90;;;;;;5050392;28;20087;-58
2021/04/18 03:39:44;;;;;;;5.40;2.53;;;2.30;99.90;;;;;;5050553;28;20075;-58
2021/04/18 03:42:10;;;;;;;11.25;2.60;;;2.30;99.90;;;;;;5049404;28;20037;-56
2021/04/18 03:44:36;;;;;;;6.38;2.17;;;2.30;99.90;;;;;;5048814;28;20029;-58
2021/04/18 03:47:02;;;;;;;5.28;2.40;;;2.30;99.90;;;;;;5050345;28;20040;-58
2021/04/18 03:49:28;;;;;;;5.68;2.40;;;2.30;99.90;;;;;;5050368;28;20037;-58
2021/04/18 03:51:54;;;;;;;6.13;2.33;;;2.30;99.90;;;;;;5051022;28;20785;-58
2021/04/18 03:54:21;;;;;;;6.43;2.60;;;2.30;99.90;;;;;;5049723;28;20029;-57
2021/04/18 03:56:50;;;;;;;5.40;2.13;;;2.20;99.90;;;;;;5050164;28;20071;-59
2021/04/18 03:59:17;;;;;;;4.43;2.17;;;2.10;99.90;;;;;;5044443;28;20037;-58
2021/04/18 04:01:43;;;;;;;5.43;2.28;;;2.10;99.90;;;;;;5050276;28;20036;-57
2021/04/18 04:04:09;;;;;;;6.45;2.65;;;2.10;99.90;;;;;;5050753;28;20025;-58
2021/04/18 04:06:35;;;;;;;4.13;1.90;;;2.00;99.90;;;;;;5050755;28;20040;-57
2021/04/18 04:09:01;;;;;;;5.35;2.42;;;1.90;99.90;;;;;;5049790;28;20785;-56
2021/04/18 04:11:27;;;;;;;7.50;2.28;;;1.90;99.90;;;;;;5050463;28;20040;-59
2021/04/18 04:13:53;;;;;;;4.03;2.22;;;1.90;99.90;;;;;;5050228;28;20021;-55
2021/04/18 04:16:18;;;;;;;7.65;2.47;;;1.90;99.90;;;;;;5051069;28;20434;-58
2021/04/18 04:18:44;;;;;;;4.47;2.30;;;1.90;99.90;;;;;;5048718;28;20037;-58
2021/04/18 04:21:10;;;;;;;4.90;2.55;;;1.80;99.90;;;;;;5050923;28;20083;-57
2021/04/18 04:23:36;;;;;;;5.40;2.22;;;1.70;99.90;;;;;;5050226;28;20021;-57
2021/04/18 04:26:03;;;;;;;6.07;2.50;;;1.70;99.90;;;;;;5050562;28;20056;-59
2021/04/18 04:28:29;;;;;;;6.88;2.80;;;1.60;99.90;;;;;;5050081;28;20033;-59
2021/04/18 04:30:55;;;;;;;6.28;2.28;;;1.60;99.90;;;;;;5049597;28;20043;-57
2021/04/18 04:33:20;;;;;;;5.93;2.15;;;1.60;99.90;;;;;;5050207;28;20041;-60
2021/04/18 04:35:46;;;;;;;6.10;2.40;;;1.60;99.90;;;;;;5050362;28;20036;-58
2021/04/18 04:38:12;;;;;;;7.55;2.75;;;1.50;99.90;;;;;;5050415;28;20033;-56
2021/04/18 04:40:37;;;;;;;4.72;2.13;;;1.50;99.90;;;;;;5049895;28;20021;-59
2021/04/18 04:43:03;;;;;;;6.03;2.53;;;1.40;99.90;;;;;;5048975;28;20601;-57
2021/04/18 04:45:29;;;;;;;11.35;2.67;;;1.40;99.90;;;;;;5050240;28;20217;-57
2021/04/18 04:47:55;;;;;;;6.53;2.92;;;1.30;99.90;;;;;;5049912;28;20075;-58
2021/04/18 04:50:21;;;;;;;7.15;2.97;;;1.40;99.90;;;;;;5049925;28;20048;-58
2021/04/18 04:52:46;;;;;;;8.65;3.10;;;1.30;99.90;;;;;;5052139;28;20059;-55
2021/04/18 04:55:13;;;;;;;13.10;2.88;;;1.30;99.90;;;;;;5053955;28;20119;-57
2021/04/18 04:57:39;;;;;;;8.02;3.40;;;1.20;99.90;;;;;;5053800;28;20033;-58
2021/04/18 05:00:06;;;;;;;5.13;2.63;;;1.20;99.90;;;;;;5040041;28;20055;-58
2021/04/18 05:02:32;;;;;;;14.20;6.00;;;1.30;99.90;;;;;;5053756;28;20064;-57
2021/04/18 05:04:57;;;;;;;24.20;9.88;;;1.30;99.90;;;;;;5053697;28;20428;-57
2021/04/18 05:07:23;;;;;;;7.97;3.17;;;1.30;99.90;;;;;;5053565;28;20028;-57
2021/04/18 05:09:49;;;;;;;9.23;2.67;;;1.20;99.90;;;;;;5053838;28;20048;-59
2021/04/18 05:12:15;;;;;;;7.25;2.83;;;1.20;99.90;;;;;;5053570;28;20487;-57
2021/04/18 05:14:42;;;;;;;8.63;3.35;;;1.20;99.90;;;;;;5053538;28;20796;-58
2021/04/18 05:17:08;;;;;;;7.97;2.85;;;1.30;99.90;;;;;;5053270;28;20036;-57
2021/04/18 05:19:34;;;;;;;7.45;2.97;;;1.20;99.90;;;;;;5053739;28;20060;-59
2021/04/18 05:21:59;;;;;;;8.63;2.90;;;1.20;99.90;;;;;;5052754;28;20075;-57
2021/04/18 05:24:25;;;;;;;9.52;3.00;;;1.10;99.90;;;;;;5052268;28;20063;-56
2021/04/18 05:26:51;;;;;;;8.73;2.95;;;1.10;99.90;;;;;;5052671;28;20467;-56
2021/04/18 05:29:19;;;;;;;9.25;3.30;;;1.10;99.90;;;;;;5053793;28;20459;-57
2021/04/18 05:31:45;;;;;;;9.32;3.17;;;1.20;99.90;;;;;;5051599;28;20036;-58
2021/04/18 05:34:11;;;;;;;9.00;3.50;;;1.20;99.90;;;;;;5053394;28;20035;-57
2021/04/18 05:36:37;;;;;;;13.00;3.80;;;1.10;99.90;;;;;;5052904;28;20037;-55
2021/04/18 05:39:07;;;;;;;7.22;3.55;;;1.20;99.90;;;;;;5051646;28;20033;-56
2021/04/18 05:41:33;;;;;;;8.57;3.03;;;1.20;99.90;;;;;;5052747;28;20025;-57
2021/04/18 05:43:59;;;;;;;10.52;3.03;;;1.30;99.90;;;;;;5053195;28;20474;-60
2021/04/18 05:46:25;;;;;;;10.55;3.42;;;1.30;99.90;;;;;;5052477;28;20107;-58
2021/04/18 05:48:50;;;;;;;10.32;3.38;;;1.20;99.90;;;;;;5053056;28;20047;-59
2021/04/18 05:51:16;;;;;;;14.27;3.75;;;1.40;99.90;;;;;;5052190;28;20025;-55
2021/04/18 05:53:42;;;;;;;12.85;4.22;;;1.40;99.90;;;;;;5052699;28;20383;-57
2021/04/18 05:56:07;;;;;;;11.27;3.90;;;1.40;99.90;;;;;;5052331;28;20043;-58
2021/04/18 05:58:33;;;;;;;7.85;3.33;;;1.40;99.90;;;;;;5053013;28;20056;-58
2021/04/18 06:00:59;;;;;;;8.60;3.10;;;1.40;99.90;;;;;;5052487;28;20065;-57
2021/04/18 06:03:25;;;;;;;7.50;2.88;;;1.40;99.90;;;;;;5050368;28;20091;-58
2021/04/18 06:05:50;;;;;;;7.80;3.40;;;1.40;99.90;;;;;;5052216;28;20120;-58
2021/04/18 06:08:16;;;;;;;9.95;3.55;;;1.50;99.90;;;;;;5052412;28;20372;-57
2021/04/18 06:10:42;;;;;;;10.52;3.20;;;1.50;99.90;;;;;;5051039;28;20067;-57
2021/04/18 06:13:07;;;;;;;5.82;3.13;;;1.60;99.90;;;;;;5052758;28;20032;-58
2021/04/18 06:15:33;;;;;;;6.72;3.00;;;1.60;99.90;;;;;;5052416;28;20029;-57
2021/04/18 06:17:59;;;;;;;6.90;3.20;;;1.60;99.90;;;;;;5051889;28;20091;-55
2021/04/18 06:20:24;;;;;;;7.38;3.00;;;1.70;99.90;;;;;;5051211;28;20035;-56
2021/04/18 06:22:50;;;;;;;6.05;3.15;;;1.80;99.90;;;;;;5050596;28;20098;-58
2021/04/18 06:25:16;;;;;;;8.65;3.20;;;1.80;99.90;;;;;;5051479;28;20045;-59
2021/04/18 06:27:43;;;;;;;11.38;3.13;;;2.10;99.90;;;;;;5052274;28;20032;-58
2021/04/18 06:30:09;;;;;;;8.65;3.60;;;2.10;99.90;;;;;;5051426;28;20406;-57
2021/04/18 06:32:34;;;;;;;8.73;3.28;;;2.20;99.90;;;;;;5050153;28;20025;-57
2021/04/18 06:35:01;;;;;;;7.88;3.47;;;2.30;99.90;;;;;;5050809;28;20039;-57
2021/04/18 06:37:27;;;;;;;13.75;4.10;;;2.40;99.90;;;;;;5051412;28;20112;-55
2021/04/18 06:39:53;;;;;;;14.43;4.13;;;2.50;99.90;;;;;;5052014;28;20146;-57
2021/04/18 06:42:23;;;;;;;7.55;3.63;;;2.70;99.90;;;;;;5050811;28;20468;-59
2021/04/18 06:44:50;;;;;;;13.30;4.38;;;2.80;99.90;;;;;;5042524;28;20075;-56
2021/04/18 06:47:17;;;;;;;13.45;4.80;;;3.00;99.90;;;;;;5051603;28;20029;-57
2021/04/18 06:49:43;;;;;;;14.80;3.90;;;3.20;99.90;;;;;;5051865;28;20033;-57
2021/04/18 06:52:12;;;;;;;11.32;3.83;;;3.40;99.90;;;;;;5051629;28;20029;-58
2021/04/18 06:54:37;;;;;;;19.10;4.63;;;3.60;99.90;;;;;;5050902;28;20025;-56
2021/04/18 06:57:03;;;;;;;9.77;3.78;;;3.60;99.90;;;;;;5050985;28;20029;-56
2021/04/18 06:59:29;;;;;;;22.95;4.78;;;3.70;99.90;;;;;;5050954;28;20080;-57
2021/04/18 07:01:55;;;;;;;12.48;3.80;;;3.80;99.90;;;;;;5051275;28;20040;-59
2021/04/18 07:04:22;;;;;;;10.45;3.80;;;4.00;99.90;;;;;;5049594;28;20040;-57
2021/04/18 07:06:53;;;;;;;10.48;3.72;;;4.10;99.90;;;;;;5050500;28;20494;-58
2021/04/18 07:09:21;;;;;;;11.40;3.33;;;4.30;99.90;;;;;;5050798;28;20025;-56
2021/04/18 07:11:59;;;;;;;12.98;3.90;;;4.40;99.90;;;;;;5051223;28;20490;-56
2021/04/18 07:14:27;;;;;;;7.05;3.25;;;4.60;99.90;;;;;;5050314;28;20127;-57
2021/04/18 07:17:06;;;;;;;21.73;4.57;;;4.70;99.90;;;;;;5051200;28;20060;-57
2021/04/18 07:19:33;;;;;;;11.77;3.78;;;4.90;99.90;;;;;;5045800;28;20116;-57
2021/04/18 07:22:00;;;;;;;7.60;3.83;;;5.10;99.90;;;;;;5051343;28;20036;-59
2021/04/18 07:24:27;;;;;;;15.68;3.92;;;5.20;99.90;;;;;;5049839;28;20072;-56
2021/04/18 07:26:56;;;;;;;10.38;3.70;;;5.40;99.90;;;;;;5050735;28;20033;-57
2021/04/18 07:29:22;;;;;;;15.60;3.55;;;5.50;99.90;;;;;;5050569;28;20771;-58
2021/04/18 07:31:49;;;;;;;15.43;3.75;;;5.90;99.90;;;;;;5041221;28;20029;-60
2021/04/18 07:34:17;;;;;;;15.02;3.33;;;6.40;99.90;;;;;;5049846;28;20041;-58
2021/04/18 07:36:45;;;;;;;4.78;2.10;;;6.90;99.90;;;;;;5049847;28;20051;-60
2021/04/18 07:39:12;;;;;;;12.77;2.88;;;7.30;99.90;;;;;;5050801;28;20033;-58
2021/04/18 07:41:41;;;;;;;9.40;2.72;;;7.70;99.90;;;;;;5049494;28;20026;-57
2021/04/18 07:44:14;;;;;;;13.30;2.70;;;8.10;99.90;;;;;;5050199;28;20068;-55
2021/04/18 07:46:44;;;;;;;7.40;2.72;;;8.40;99.90;;;;;;5050444;28;20028;-56
2021/04/18 07:49:12;;;;;;;10.05;3.05;;;8.70;99.90;;;;;;5050422;28;20108;-58
2021/04/18 07:51:38;;;;;;;14.13;3.63;;;9.10;99.90;;;;;;5049979;28;20120;-57
2021/04/18 07:54:03;;;;;;;13.93;2.80;;;9.30;99.90;;;;;;5045601;28;20111;-56
2021/04/18 07:56:30;;;;;;;9.07;3.10;;;9.50;99.90;;;;;;5047156;28;20474;-59
2021/04/18 07:59:02;;;;;;;9.27;3.15;;;9.60;99.90;;;;;;5043934;28;20106;-57
2021/04/18 08:01:28;;;;;;;11.05;3.15;;;9.80;99.90;;;;;;5047242;28;20083;-59
2021/04/18 08:03:55;;;;;;;9.55;2.70;;;10.00;99.90;;;;;;5045726;28;20033;-56
2021/04/18 08:06:21;;;;;;;33.50;4.47;;;10.10;99.90;;;;;;5044532;28;20068;-56
2021/04/18 08:08:49;;;;;;;11.15;2.45;;;10.30;99.90;;;;;;5054813;28;20424;-57
2021/04/18 08:11:19;;;;;;;8.80;2.17;;;10.40;99.90;;;;;;5057150;28;20035;-59
2021/04/18 08:13:51;;;;;;;11.90;3.10;;;10.60;99.90;;;;;;5054066;28;20043;-59
2021/04/18 08:16:27;;;;;;;7.28;2.33;;;10.80;99.90;;;;;;5048802;28;20048;-56
2021/04/18 08:18:53;;;;;;;5.07;2.40;;;11.10;99.90;;;;;;5056351;28;20029;-55
2021/04/18 08:21:33;;;;;;;9.48;2.35;;;11.40;99.90;;;;;;5052703;28;20024;-57
2021/04/18 08:24:01;;;;;;;7.43;2.45;;;11.30;99.90;;;;;;5051424;28;20058;-56
2021/04/18 08:26:32;;;;;;;7.47;2.30;;;11.50;99.90;;;;;;5047891;28;20112;-58
2021/04/18 08:28:58;;;;;;;8.35;2.88;;;11.60;99.90;;;;;;5051370;28;20033;-57
2021/04/18 08:31:29;;;;;;;7.38;2.60;;;11.70;99.90;;;;;;5053361;28;20029;-59
2021/04/18 08:33:57;;;;;;;6.93;2.65;;;11.70;99.90;;;;;;5053807;28;21679;-58
2021/04/18 08:36:28;;;;;;;11.55;2.80;;;11.90;99.90;;;;;;5052439;28;20025;-57
2021/04/18 08:39:00;;;;;;;4.97;2.40;;;11.90;99.90;;;;;;5048837;28;20072;-58
2021/04/18 08:41:47;;;;;;;11.43;2.83;;;12.20;99.90;;;;;;5049086;28;20029;-59
2021/04/18 08:44:26;;;;;;;7.03;2.50;;;12.30;99.90;;;;;;5050324;28;20029;-57
2021/04/18 08:46:57;;;;;;;4.75;2.30;;;12.40;99.90;;;;;;5051593;28;20479;-58
2021/04/18 08:49:29;;;;;;;8.52;2.75;;;12.60;98.10;;;;;;5057793;28;20048;-59
2021/04/18 08:51:55;;;;;;;8.10;3.05;;;12.50;98.40;;;;;;5040983;28;20551;-58
2021/04/18 08:54:42;;;;;;;10.90;2.33;;;12.70;98.70;;;;;;5053817;28;20063;-58
2021/04/18 08:57:10;;;;;;;8.35;2.50;;;13.00;97.80;;;;;;5054743;28;20036;-58
2021/04/18 08:59:37;;;;;;;8.25;2.45;;;12.90;96.80;;;;;;5054118;28;20136;-57
2021/04/18 09:02:10;;;;;;;7.90;3.28;;;13.00;97.40;;;;;;5052169;28;20021;-58
2021/04/18 09:04:57;;;;;;;5.97;2.28;;;13.10;96.60;;;;;;5058890;28;20021;-58
2021/04/18 09:07:27;;;;;;;5.75;2.20;;;13.10;95.80;;;;;;5051809;28;20025;-56
2021/04/18 09:09:56;;;;;;;7.00;2.33;;;13.20;95.20;;;;;;5053704;28;20044;-57
2021/04/18 09:12:22;;;;;;;13.02;2.60;;;13.20;95.10;;;;;;5055102;28;20090;-58
2021/04/18 09:14:49;;;;;;;12.70;2.55;;;13.20;94.80;;;;;;5055391;28;20471;-56
2021/04/18 09:17:27;;;;;;;14.07;2.60;;;13.10;93.70;;;;;;5049902;28;20044;-57
2021/04/18 09:19:59;;;;;;;7.18;2.47;;;13.30;94.40;;;;;;5055520;28;20108;-59
2021/04/18 09:22:26;;;;;;;13.73;3.60;;;13.30;94.30;;;;;;5045819;28;20041;-59
2021/04/18 09:24:54;;;;;;;11.45;3.10;;;13.20;94.30;;;;;;5055182;28;20053;-56
2021/04/18 09:27:31;;;;;;;7.93;2.95;;;13.20;93.20;;;;;;5051287;28;20483;-58
2021/04/18 09:30:00;;;;;;;9.32;2.88;;;13.20;93.50;;;;;;5055632;28;20417;-58
2021/04/18 09:32:28;;;;;;;7.57;2.47;;;13.40;93.40;;;;;;5051508;28;20033;-58
2021/04/18 09:34:54;;;;;;;6.88;2.15;;;13.70;92.90;;;;;;5051572;28;20107;-55
2021/04/18 09:37:23;;;;;;;16.75;2.85;;;13.60;91.70;;;;;;5051653;28;20119;-58
2021/04/18 09:39:56;;;;;;;7.63;2.38;;;13.80;92.30;;;;;;5052201;28;20094;-59
2021/04/18 09:42:23;;;;;;;6.13;2.50;;;13.90;92.10;;;;;;5051383;28;20041;-58
2021/04/18 09:44:52;;;;;;;539.92;31.27;;;13.90;92.40;;;;;;5043904;28;20036;-58
2021/04/18 09:47:28;;;;;;;304.67;16.13;;;14.00;92.20;;;;;;5051655;28;20520;-60
2021/04/18 09:49:59;;;;;;;6.20;2.17;;;13.80;92.60;;;;;;5050877;28;20078;-58
2021/04/18 09:52:25;;;;;;;29.27;4.28;;;13.90;92.40;;;;;;5050859;28;20022;-59
2021/04/18 09:54:54;;;;;;;4.35;1.90;;;13.90;92.60;;;;;;5050196;28;20336;-59
2021/04/18 09:57:25;;;;;;;6.10;2.33;;;14.00;91.90;;;;;;5052474;28;20045;-57
2021/04/18 10:00:08;;;;;;;15.60;3.08;;;13.90;92.10;;;;;;5052526;28;20029;-61
2021/04/18 10:02:34;;;;;;;7.93;2.47;;;14.00;92.80;;;;;;5048868;28;20098;-59
2021/04/18 10:05:12;;;;;;;11.55;3.10;;;13.80;93.40;;;;;;5052619;28;20117;-58
2021/04/18 10:07:39;;;;;;;6.25;1.90;;;13.70;92.80;;;;;;5044937;28;20041;-58
2021/04/18 10:10:06;;;;;;;12.27;2.78;;;13.80;94.40;;;;;;5050804;28;20024;-56
2021/04/18 10:12:52;;;;;;;5.88;2.30;;;14.00;95.20;;;;;;5052562;28;20037;-59
2021/04/18 10:15:18;;;;;;;;;;;13.90;94.10;;;;;;5052860;28;20025;-59
2021/04/18 10:17:44;;;;;;;7.95;2.22;;;13.80;92.80;;;;;;5051022;28;20443;-57
2021/04/18 10:20:11;;;;;;;6.35;2.13;;;13.80;92.40;;;;;;5051860;28;20051;-58
2021/04/18 10:22:37;;;;;;;5.45;1.70;;;13.80;92.00;;;;;;5057835;28;20092;-56
2021/04/18 10:25:07;;;;;;;3.92;1.80;;;13.90;91.80;;;;;;5049877;28;20498;-59
2021/04/18 10:27:34;;;;;;;5.40;2.03;;;13.90;92.30;;;;;;5049834;28;20447;-57
2021/04/18 10:30:06;;;;;;;8.25;2.10;;;14.00;92.50;;;;;;5057699;28;20044;-60
2021/04/18 10:32:44;;;;;;;8.68;2.20;;;14.00;92.00;;;;;;5052394;28;20028;-57
2021/04/18 10:35:19;;;;;;;4.10;2.17;;;14.20;91.70;;;;;;5045100;28;20029;-60
2021/04/18 10:37:46;;;;;;;5.80;2.00;;;14.30;92.50;;;;;;5051893;28;20048;-58
2021/04/18 10:40:15;;;;;;;8.23;2.08;;;14.30;91.30;;;;;;5060113;28;20086;-57
2021/04/18 10:42:41;;;;;;;8.60;2.00;;;14.10;91.40;;;;;;5049501;28;20466;-57
2021/04/18 10:45:08;;;;;;;6.03;2.40;;;14.30;91.00;;;;;;5058850;28;20024;-59
2021/04/18 10:47:34;;;;;;;8.27;2.28;;;14.30;91.60;;;;;;5059365;28;20028;-57
2021/04/18 10:50:02;;;;;;;3.97;1.70;;;14.30;90.40;;;;;;5050841;28;20040;-59
2021/04/18 10:52:28;;;;;;;5.88;2.00;;;14.00;90.10;;;;;;5050878;28;20532;-56
2021/04/18 10:54:54;;;;;;;12.95;2.53;;;14.10;90.60;;;;;;5051272;28;20167;-58
2021/04/18 10:57:20;;;;;;;4.10;1.95;;;13.80;90.80;;;;;;5051459;28;20467;-59
2021/04/18 10:59:45;;;;;;;4.63;1.90;;;13.90;90.40;;;;;;5051153;28;20421;-58
2021/04/18 11:02:11;;;;;;;4.95;1.70;;;13.90;90.80;;;;;;5049312;28;20727;-57
2021/04/18 11:04:37;;;;;;;3.55;1.65;;;13.90;91.30;;;;;;5056161;28;20033;-59
2021/04/18 11:07:03;;;;;;;4.68;2.17;;;13.90;90.80;;;;;;5049368;28;20114;-58
2021/04/18 11:09:29;;;;;;;13.52;2.40;;;14.00;90.70;;;;;;5054629;28;20387;-60
2021/04/18 11:11:55;;;;;;;10.10;2.38;;;14.10;91.00;;;;;;5051060;28;20398;-58
2021/04/18 11:14:22;;;;;;;8.40;2.60;;;14.20;90.70;;;;;;5061606;28;20405;-59
2021/04/18 11:16:48;;;;;;;8.73;2.40;;;14.20;90.60;;;;;;5053269;28;20029;-56
2021/04/18 11:19:14;;;;;;;4.95;2.15;;;14.20;91.10;;;;;;5050948;28;20025;-58
2021/04/18 11:21:39;;;;;;;4.28;1.77;;;14.30;90.80;;;;;;5050986;28;20028;-59
2021/04/18 11:24:06;;;;;;;3.97;1.75;;;14.40;90.80;;;;;;5048868;28;20041;-57
2021/04/18 11:26:31;;;;;;;7.65;2.05;;;14.30;90.30;;;;;;5053544;28;20112;-58
2021/04/18 11:28:57;;;;;;;2.90;1.67;;;14.40;90.30;;;;;;5051304;28;20116;-58
2021/04/18 11:31:24;;;;;;;10.13;2.38;;;14.20;89.00;;;;;;5049531;28;20037;-58
2021/04/18 11:33:50;;;;;;;4.15;1.75;;;14.30;90.00;;;;;;5050951;28;20086;-55
2021/04/18 11:36:18;;;;;;;2.53;1.60;;;14.40;89.10;;;;;;5053547;28;20429;-56
2021/04/18 11:38:43;;;;;;;8.02;2.20;;;14.40;90.00;;;;;;5049578;28;20069;-59
2021/04/18 11:41:09;;;;;;;5.95;2.00;;;14.20;89.70;;;;;;5050303;28;20057;-57
2021/04/18 11:43:35;;;;;;;5.90;2.10;;;14.30;90.10;;;;;;5053236;28;20075;-56
2021/04/18 11:46:01;;;;;;;15.60;2.30;;;14.50;90.60;;;;;;5050968;28;20495;-56
2021/04/18 11:48:27;;;;;;;6.97;1.88;;;14.80;90.40;;;;;;5051394;28;20021;-59
2021/04/18 11:50:52;;;;;;;9.27;2.10;;;14.60;89.40;;;;;;5054911;28;20174;-59
2021/04/18 11:53:18;;;;;;;3.47;1.98;;;14.40;89.80;;;;;;5050996;28;20433;-59
2021/04/18 11:55:44;;;;;;;7.07;2.08;;;14.60;90.50;;;;;;5047999;28;20037;-60
2021/04/18 11:58:11;;;;;;;7.53;2.20;;;14.60;89.30;;;;;;5048966;28;20037;-55
2021/04/18 12:00:37;;;;;;;3.72;1.60;;;14.50;90.00;;;;;;5051419;28;20029;-59
2021/04/18 12:03:03;;;;;;;4.18;1.80;;;14.50;90.00;;;;;;5048555;28;20027;-60
2021/04/18 12:05:29;;;;;;;9.88;2.38;;;14.60;89.60;;;;;;5049420;28;20021;-59
2021/04/18 12:07:55;;;;;;;6.03;1.90;;;14.70;89.30;;;;;;5051003;28;20040;-56
2021/04/18 12:10:21;;;;;;;7.50;1.65;;;14.80;88.70;;;;;;5049681;28;20148;-60
2021/04/18 12:12:46;;;;;;;2.95;1.80;;;14.90;87.80;;;;;;5048382;28;20039;-58
2021/04/18 12:15:13;;;;;;;6.13;2.00;;;14.80;89.20;;;;;;5048790;28;20510;-59
2021/04/18 12:17:40;;;;;;;5.07;1.85;;;14.90;89.30;;;;;;5050039;28;20032;-60
2021/04/18 12:20:08;;;;;;;8.38;1.90;;;14.90;89.00;;;;;;5046228;28;20487;-60
2021/04/18 12:22:35;;;;;;;4.93;2.10;;;14.80;89.70;;;;;;5054513;28;20570;-60
2021/04/18 12:25:01;;;;;;;3.03;1.85;;;14.90;90.20;;;;;;5058271;28;20059;-58
2021/04/18 12:27:27;;;;;;;3.35;2.00;;;14.80;88.90;;;;;;5048971;28;20032;-59
2021/04/18 12:29:53;;;;;;;4.85;1.90;;;15.00;89.40;;;;;;5050064;28;20427;-60
2021/04/18 12:32:20;;;;;;;5.60;2.22;;;14.90;89.10;;;;;;5048093;28;20083;-57
2021/04/18 12:34:45;;;;;;;2.67;1.60;;;15.00;88.80;;;;;;5049224;28;20498;-58
2021/04/18 12:37:11;;;;;;;5.72;1.92;;;15.10;88.10;;;;;;5054051;28;20025;-57
2021/04/18 12:39:37;;;;;;;4.10;2.00;;;15.00;87.70;;;;;;5050406;28;20024;-59
2021/04/18 12:42:03;;;;;;;3.53;2.00;;;15.00;88.00;;;;;;5048885;28;20039;-57
2021/04/18 12:44:29;;;;;;;7.05;2.33;;;14.90;88.80;;;;;;5048146;28;20123;-59
2021/04/18 12:46:55;;;;;;;3.28;1.90;;;14.80;88.10;;;;;;5049051;28;20037;-60
2021/04/18 12:49:21;;;;;;;7.20;2.28;;;14.90;88.20;;;;;;5059066;28;20048;-58